createdAt,value
2023-11-24T00:03:43.923Z,7.21
2023-11-24T00:08:45.445Z,7.13
2023-11-24T00:13:46.988Z,7.06
2023-11-24T00:18:48.507Z,6.85
2023-11-24T00:23:50.704Z,6.60
2023-11-24T00:28:52.194Z,6.43
2023-11-24T00:33:54.196Z,6.34
2023-11-24T00:38:56.041Z,6.26
2023-11-24T00:43:57.612Z,6.17
2023-11-24T00:48:59.299Z,6.11
2023-11-24T00:54:00.801Z,5.97
2023-11-24T00:59:02.898Z,5.93
2023-11-24T01:04:05.505Z,5.93
2023-11-24T01:09:10.626Z,5.89
2023-11-24T01:14:12.157Z,5.91
2023-11-24T01:19:15.554Z,5.94
2023-11-24T01:24:17.063Z,5.98
2023-11-24T01:29:18.543Z,5.96
2023-11-24T01:34:20.129Z,5.87
2023-11-24T01:39:22.349Z,5.85
2023-11-24T01:44:24.000Z,5.86
2023-11-24T01:49:28.428Z,5.86
2023-11-24T01:54:37.638Z,5.90
2023-11-24T01:59:40.156Z,5.98
2023-11-24T02:04:42.549Z,5.99
2023-11-24T02:09:44.475Z,5.96
2023-11-24T02:14:46.184Z,5.96
2023-11-24T02:19:47.800Z,6.00
2023-11-24T02:24:49.315Z,6.03
2023-11-24T02:29:52.101Z,6.04
2023-11-24T02:34:53.661Z,6.04
2023-11-24T02:39:55.296Z,6.07
2023-11-24T02:44:57.079Z,6.07
2023-11-24T02:49:58.631Z,6.08
2023-11-24T02:55:00.303Z,6.08
2023-11-24T03:00:03.303Z,6.10
2023-11-24T03:05:05.230Z,6.07
2023-11-24T03:10:07.326Z,6.05
2023-11-24T03:15:12.146Z,6.03
2023-11-24T03:20:14.528Z,6.04
2023-11-24T03:25:16.412Z,6.06
2023-11-24T03:30:18.045Z,6.05
2023-11-24T03:35:20.227Z,5.99
2023-11-24T03:40:21.737Z,5.89
2023-11-24T03:45:23.245Z,5.85
2023-11-24T03:50:24.744Z,5.83
2023-11-24T03:55:26.641Z,5.83
2023-11-24T04:00:29.207Z,5.82
2023-11-24T04:05:31.013Z,5.82
2023-11-24T04:10:32.513Z,5.79
2023-11-24T04:15:34.166Z,5.81
2023-11-24T04:20:35.763Z,5.81
2023-11-24T04:25:37.373Z,5.82
2023-11-24T04:30:38.854Z,5.87
2023-11-24T04:35:40.472Z,5.83
2023-11-24T04:40:41.983Z,5.74
2023-11-24T04:45:43.682Z,5.71
2023-11-24T04:50:45.261Z,5.75
2023-11-24T04:55:46.770Z,5.76
2023-11-24T05:00:48.320Z,5.77
2023-11-24T05:05:50.105Z,5.77
2023-11-24T05:10:51.598Z,5.78
2023-11-24T05:15:53.283Z,5.72
2023-11-24T05:20:54.847Z,5.63
2023-11-24T05:25:56.315Z,5.52
2023-11-24T05:30:59.243Z,5.53
2023-11-24T05:36:01.023Z,5.56
2023-11-24T05:41:02.536Z,5.60
2023-11-24T05:46:04.547Z,5.64
2023-11-24T05:51:06.538Z,5.68
2023-11-24T05:56:09.200Z,5.67
2023-11-24T06:01:10.945Z,5.69
2023-11-24T06:06:12.663Z,5.70
2023-11-24T06:11:18.893Z,5.73
2023-11-24T06:16:21.922Z,5.77
2023-11-24T06:21:23.425Z,5.81
2023-11-24T06:26:25.346Z,5.76
2023-11-24T06:31:26.986Z,5.69
2023-11-24T06:36:28.715Z,5.69
2023-11-24T06:41:30.258Z,5.73
2023-11-24T06:46:31.803Z,5.76
2023-11-24T06:51:33.497Z,5.82
2023-11-24T06:56:35.021Z,5.78
2023-11-24T07:01:37.904Z,5.68
2023-11-24T07:06:40.384Z,5.35
2023-11-24T07:11:44.804Z,5.14
2023-11-24T07:16:46.373Z,5.02
2023-11-24T07:21:48.497Z,4.68
2023-11-24T07:26:49.997Z,4.51
2023-11-24T07:31:51.986Z,4.57
2023-11-24T07:36:54.700Z,4.71
2023-11-24T07:41:59.815Z,4.74
2023-11-24T07:47:01.574Z,4.73
2023-11-24T07:52:03.439Z,4.69
2023-11-24T07:57:05.140Z,4.75
2023-11-24T08:02:06.702Z,4.89
2023-11-24T08:07:08.423Z,4.96
2023-11-24T08:12:12.335Z,5.05
2023-11-24T08:17:15.611Z,5.18
2023-11-24T08:22:17.134Z,5.22
2023-11-24T08:27:19.501Z,5.30
2023-11-24T08:37:21.820Z,5.29
2023-11-24T08:42:26.880Z,5.41
2023-11-24T08:47:29.034Z,5.40
2023-11-24T08:52:30.655Z,5.30
2023-11-24T08:57:32.133Z,5.15
2023-11-24T09:02:34.016Z,4.97
2023-11-24T09:07:35.546Z,4.89
2023-11-24T09:12:37.078Z,4.93
2023-11-24T09:17:38.608Z,4.84
2023-11-24T09:22:40.122Z,4.67
2023-11-24T09:27:42.444Z,4.87
2023-11-24T09:32:44.105Z,5.19
2023-11-24T09:37:45.659Z,5.15
2023-11-24T09:42:48.465Z,4.57
2023-11-24T09:47:52.544Z,3.63
2023-11-24T09:52:56.706Z,2.90
2023-11-24T09:57:59.045Z,2.53
2023-11-24T10:03:01.816Z,2.39
2023-11-24T10:08:03.847Z,2.36
2023-11-24T10:13:06.391Z,2.38
2023-11-24T10:18:08.995Z,2.40
2023-11-24T10:23:10.644Z,2.42
2023-11-24T10:28:12.219Z,2.39
2023-11-24T10:33:34.703Z,2.29
2023-11-24T10:38:41.875Z,2.30
2023-11-24T10:43:43.725Z,2.49
2023-11-24T10:48:52.952Z,2.69
2023-11-24T10:53:58.326Z,2.67
2023-11-24T10:59:01.493Z,2.69
2023-11-24T11:04:04.346Z,2.76
2023-11-24T11:09:20.859Z,2.61
2023-11-24T11:14:23.655Z,2.21
2023-11-24T11:19:33.319Z,2.14
2023-11-24T11:24:36.585Z,2.18
2023-11-24T11:29:39.184Z,2.29
2023-11-24T11:34:42.638Z,2.43
2023-11-24T11:39:58.465Z,2.39
2023-11-24T11:45:10.670Z,2.30
2023-11-24T11:50:18.991Z,2.35
2023-11-24T11:55:24.287Z,2.29
2023-11-24T12:00:28.267Z,2.30
2023-11-24T12:05:29.961Z,2.48
2023-11-24T12:10:32.816Z,2.55
2023-11-24T12:15:35.283Z,2.59
2023-11-24T12:20:37.837Z,2.58
2023-11-24T12:25:41.079Z,2.62
2023-11-24T12:30:44.205Z,2.61
2023-11-24T12:35:47.101Z,2.54
2023-11-24T12:40:51.316Z,2.54
2023-11-24T12:45:53.095Z,2.51
2023-11-24T12:50:59.679Z,2.51
2023-11-24T12:56:01.368Z,2.56
2023-11-24T13:01:02.965Z,2.74
2023-11-24T13:06:06.013Z,2.83
2023-11-24T13:11:07.793Z,2.85
2023-11-24T13:16:10.921Z,2.76
2023-11-24T13:21:12.573Z,2.66
2023-11-24T13:26:15.775Z,2.44
2023-11-24T13:31:17.217Z,2.42
2023-11-24T13:36:18.692Z,2.45
2023-11-24T13:41:20.194Z,2.48
2023-11-24T13:46:21.729Z,2.47
2023-11-24T13:51:25.265Z,2.47
2023-11-24T13:56:26.975Z,2.55
2023-11-24T14:01:28.578Z,2.56
2023-11-24T14:06:32.072Z,2.52
2023-11-24T14:11:34.006Z,2.52
2023-11-24T14:16:35.535Z,2.53
2023-11-24T14:21:38.099Z,2.61
2023-11-24T14:26:39.803Z,2.66
2023-11-24T14:31:41.892Z,2.70
2023-11-24T14:36:43.685Z,2.72
2023-11-24T14:41:47.519Z,2.69
2023-11-24T14:46:49.102Z,2.63
2023-11-24T14:51:51.941Z,2.60
2023-11-24T14:56:54.485Z,2.58
2023-11-24T15:02:18.319Z,2.57
2023-11-24T15:07:48.939Z,2.66
2023-11-24T15:20:05.932Z,2.79
2023-11-24T15:25:27.796Z,2.83
2023-11-24T15:30:30.902Z,2.83
2023-11-24T15:35:32.279Z,2.83
2023-11-24T15:40:33.766Z,2.83
2023-11-24T15:45:35.201Z,2.85
2023-11-24T15:50:39.432Z,2.89
2023-11-24T15:55:48.655Z,2.95
2023-11-24T16:00:50.513Z,2.93
2023-11-24T16:05:52.322Z,2.83
2023-11-24T16:10:57.222Z,2.53
2023-11-24T16:16:22.952Z,2.15
2023-11-24T16:21:29.972Z,1.96
2023-11-24T16:26:31.680Z,1.97
2023-11-24T16:31:36.561Z,2.07
2023-11-24T16:36:39.245Z,1.93
2023-11-24T16:41:40.806Z,1.91
2023-11-24T16:46:55.400Z,1.98
2023-11-24T16:51:57.642Z,2.08
2023-11-24T16:56:59.159Z,2.11
2023-11-24T17:02:00.681Z,2.13
2023-11-24T17:07:03.889Z,2.14
2023-11-24T17:12:06.838Z,2.09
2023-11-24T17:17:08.346Z,2.08
2023-11-24T17:22:10.672Z,2.10
2023-11-24T17:27:12.193Z,2.12
2023-11-24T17:32:13.706Z,2.12
2023-11-24T17:37:16.813Z,2.18
2023-11-24T17:42:18.300Z,2.23
2023-11-24T17:47:20.000Z,2.20
2023-11-24T17:52:21.888Z,2.16
2023-11-24T17:57:23.461Z,2.13
2023-11-24T18:02:25.010Z,2.14
2023-11-24T18:07:26.817Z,2.19
2023-11-24T18:12:28.442Z,2.23
2023-11-24T18:17:30.941Z,2.25
2023-11-24T18:22:32.566Z,2.23
2023-11-24T18:27:36.540Z,2.23
2023-11-24T18:32:39.133Z,2.29
2023-11-24T18:37:40.805Z,2.32
2023-11-24T18:42:42.325Z,2.28
2023-11-24T18:47:45.253Z,2.19
2023-11-24T18:52:47.727Z,2.12
2023-11-24T18:57:50.723Z,2.15
2023-11-24T19:02:53.459Z,2.16
2023-11-24T19:07:55.783Z,2.14
2023-11-24T19:12:57.339Z,2.23
2023-11-24T19:17:58.974Z,2.28
2023-11-24T19:23:00.622Z,2.35
2023-11-24T19:28:02.296Z,2.37
2023-11-24T19:33:03.867Z,2.39
2023-11-24T19:38:06.109Z,2.38
2023-11-24T19:43:07.653Z,2.38
2023-11-24T19:48:09.446Z,2.39
2023-11-24T19:53:11.434Z,2.44
2023-11-24T19:58:13.497Z,2.47
2023-11-24T20:03:15.751Z,2.47
2023-11-24T20:08:17.277Z,2.50
2023-11-24T20:13:18.999Z,2.54
2023-11-24T20:18:20.529Z,2.57
2023-11-24T20:23:22.046Z,2.56
2023-11-24T20:28:23.777Z,2.51
2023-11-24T20:33:25.545Z,2.55
2023-11-24T20:38:27.157Z,2.52
2023-11-24T20:43:29.671Z,2.44
2023-11-24T20:48:31.214Z,2.38
2023-11-24T20:53:33.456Z,2.40
2023-11-24T20:58:35.212Z,2.40
2023-11-24T21:03:37.312Z,2.40
2023-11-24T21:08:38.856Z,2.36
2023-11-24T21:13:42.496Z,2.30
2023-11-24T21:18:44.107Z,2.27
2023-11-24T21:23:45.609Z,2.33
2023-11-24T21:28:47.203Z,2.39
2023-11-24T21:33:49.873Z,2.31
2023-11-24T21:38:51.670Z,2.22
2023-11-24T21:43:53.956Z,2.11
2023-11-24T21:48:55.609Z,2.04
2023-11-24T21:53:57.153Z,1.97
2023-11-24T21:58:58.785Z,1.97
2023-11-24T22:04:00.575Z,2.00
2023-11-24T22:09:05.203Z,2.06
2023-11-24T22:14:06.828Z,2.08
2023-11-24T22:19:08.388Z,2.11
2023-11-24T22:24:10.862Z,2.13
2023-11-24T22:29:13.592Z,2.13
2023-11-24T22:34:17.707Z,2.08
2023-11-24T22:39:23.610Z,1.99
2023-11-24T22:44:25.530Z,1.89
2023-11-24T22:49:27.071Z,1.88
2023-11-24T22:54:28.650Z,1.86
2023-11-24T22:59:30.197Z,1.81
2023-11-24T23:04:31.718Z,1.82
2023-11-24T23:09:33.250Z,1.80
2023-11-24T23:14:36.444Z,1.82
2023-11-24T23:19:38.879Z,1.89
2023-11-24T23:24:43.919Z,1.86
2023-11-24T23:29:45.420Z,1.84
2023-11-24T23:34:46.972Z,1.82
2023-11-24T23:39:48.495Z,1.81
2023-11-24T23:44:50.045Z,1.80
2023-11-24T23:49:51.591Z,1.79
2023-11-24T23:54:53.773Z,1.76
2023-11-24T23:59:55.257Z,1.69
